sensor_id;sensor_type;location;lat;lon;timestamp;temperature;humidity
53264;DHT22;39153;52.680;6.172;2023-12-20T00:01:00;7.00;99.90
53264;DHT22;39153;52.680;6.172;2023-12-20T00:03:26;6.90;99.90
53264;DHT22;39153;52.680;6.172;2023-12-20T00:05:52;6.90;99.90
53264;DHT22;39153;52.680;6.172;2023-12-20T00:08:17;7.20;99.90
53264;DHT22;39153;52.680;6.172;2023-12-20T00:10:44;7.30;99.90
53264;DHT22;39153;52.680;6.172;2023-12-20T00:13:10;6.80;99.90
53264;DHT22;39153;52.680;6.172;2023-12-20T00:15:36;7.60;99.90
53264;DHT22;39153;52.680;6.172;2023-12-20T00:18:02;7.00;99.90
53264;DHT22;39153;52.680;6.172;2023-12-20T00:20:28;6.60;99.90
53264;DHT22;39153;52.680;6.172;2023-12-20T00:22:57;6.80;99.90
53264;DHT22;39153;52.680;6.172;2023-12-20T00:25:24;7.30;99.90
53264;DHT22;39153;52.680;6.172;2023-12-20T00:27:49;7.00;99.90
53264;DHT22;39153;52.680;6.172;2023-12-20T00:30:15;7.20;99.90
53264;DHT22;39153;52.680;6.172;2023-12-20T00:32:41;7.00;99.90
53264;DHT22;39153;52.680;6.172;2023-12-20T00:35:15;7.40;99.90
53264;DHT22;39153;52.680;6.172;2023-12-20T00:37:42;7.20;99.90
53264;DHT22;39153;52.680;6.172;2023-12-20T00:40:08;7.50;99.90
53264;DHT22;39153;52.680;6.172;2023-12-20T00:42:34;7.50;99.90
53264;DHT22;39153;52.680;6.172;2023-12-20T00:45:00;7.70;99.90
53264;DHT22;39153;52.680;6.172;2023-12-20T00:47:26;7.50;99.90
53264;DHT22;39153;52.680;6.172;2023-12-20T00:49:51;6.90;99.90
53264;DHT22;39153;52.680;6.172;2023-12-20T00:52:18;7.10;99.90
53264;DHT22;39153;52.680;6.172;2023-12-20T00:54:44;6.90;99.90
53264;DHT22;39153;52.680;6.172;2023-12-20T00:57:09;6.80;99.90
53264;DHT22;39153;52.680;6.172;2023-12-20T00:59:35;7.00;99.90
53264;DHT22;39153;52.680;6.172;2023-12-20T01:02:01;7.10;99.90
53264;DHT22;39153;52.680;6.172;2023-12-20T01:04:27;7.50;99.90
53264;DHT22;39153;52.680;6.172;2023-12-20T01:06:53;7.50;99.90
53264;DHT22;39153;52.680;6.172;2023-12-20T01:09:19;7.10;99.90
53264;DHT22;39153;52.680;6.172;2023-12-20T01:11:45;7.70;99.90
53264;DHT22;39153;52.680;6.172;2023-12-20T01:14:12;7.30;99.90
53264;DHT22;39153;52.680;6.172;2023-12-20T01:16:38;7.80;99.90
53264;DHT22;39153;52.680;6.172;2023-12-20T01:19:03;7.40;99.90
53264;DHT22;39153;52.680;6.172;2023-12-20T01:21:29;7.60;99.90
53264;DHT22;39153;52.680;6.172;2023-12-20T01:23:54;7.30;99.90
53264;DHT22;39153;52.680;6.172;2023-12-20T01:26:20;7.10;99.90
53264;DHT22;39153;52.680;6.172;2023-12-20T01:28:46;7.50;99.90
53264;DHT22;39153;52.680;6.172;2023-12-20T01:31:11;7.00;99.90
53264;DHT22;39153;52.680;6.172;2023-12-20T01:33:37;7.40;99.90
53264;DHT22;39153;52.680;6.172;2023-12-20T01:36:03;7.50;99.90
53264;DHT22;39153;52.680;6.172;2023-12-20T01:38:29;7.40;99.90
53264;DHT22;39153;52.680;6.172;2023-12-20T01:40:55;7.30;99.90
53264;DHT22;39153;52.680;6.172;2023-12-20T01:43:20;7.30;99.90
53264;DHT22;39153;52.680;6.172;2023-12-20T01:45:47;7.50;99.90
53264;DHT22;39153;52.680;6.172;2023-12-20T01:48:13;7.00;99.90
53264;DHT22;39153;52.680;6.172;2023-12-20T01:50:40;7.10;99.90
53264;DHT22;39153;52.680;6.172;2023-12-20T01:53:09;7.30;99.90
53264;DHT22;39153;52.680;6.172;2023-12-20T01:55:39;7.40;99.90
53264;DHT22;39153;52.680;6.172;2023-12-20T01:58:08;7.10;99.90
53264;DHT22;39153;52.680;6.172;2023-12-20T02:00:35;7.40;99.90
53264;DHT22;39153;52.680;6.172;2023-12-20T02:03:02;7.00;99.90
53264;DHT22;39153;52.680;6.172;2023-12-20T02:05:32;7.10;99.90
53264;DHT22;39153;52.680;6.172;2023-12-20T02:07:58;6.90;99.90
53264;DHT22;39153;52.680;6.172;2023-12-20T02:10:24;7.30;99.90
53264;DHT22;39153;52.680;6.172;2023-12-20T02:12:50;7.40;99.90
53264;DHT22;39153;52.680;6.172;2023-12-20T02:15:16;7.50;99.90
53264;DHT22;39153;52.680;6.172;2023-12-20T02:17:42;7.60;99.90
53264;DHT22;39153;52.680;6.172;2023-12-20T02:20:08;7.10;99.90
53264;DHT22;39153;52.680;6.172;2023-12-20T02:22:34;7.60;99.90
53264;DHT22;39153;52.680;6.172;2023-12-20T02:25:00;7.30;99.90
53264;DHT22;39153;52.680;6.172;2023-12-20T02:27:25;7.70;99.90
53264;DHT22;39153;52.680;6.172;2023-12-20T02:29:51;7.00;99.90
53264;DHT22;39153;52.680;6.172;2023-12-20T02:32:17;7.10;99.90
53264;DHT22;39153;52.680;6.172;2023-12-20T02:34:43;7.60;99.90
53264;DHT22;39153;52.680;6.172;2023-12-20T02:37:09;7.10;99.90
53264;DHT22;39153;52.680;6.172;2023-12-20T02:39:35;7.50;99.90
53264;DHT22;39153;52.680;6.172;2023-12-20T02:42:00;7.60;99.90
53264;DHT22;39153;52.680;6.172;2023-12-20T02:44:26;7.00;99.90
53264;DHT22;39153;52.680;6.172;2023-12-20T02:46:52;7.10;99.90
53264;DHT22;39153;52.680;6.172;2023-12-20T02:49:17;7.20;99.90
53264;DHT22;39153;52.680;6.172;2023-12-20T02:51:43;7.20;99.90
53264;DHT22;39153;52.680;6.172;2023-12-20T02:54:09;7.20;99.90
53264;DHT22;39153;52.680;6.172;2023-12-20T02:56:35;7.70;99.90
53264;DHT22;39153;52.680;6.172;2023-12-20T02:59:01;7.40;99.90
53264;DHT22;39153;52.680;6.172;2023-12-20T03:01:27;7.30;99.90
53264;DHT22;39153;52.680;6.172;2023-12-20T03:03:53;7.30;99.90
53264;DHT22;39153;52.680;6.172;2023-12-20T03:06:19;7.50;99.90
53264;DHT22;39153;52.680;6.172;2023-12-20T03:08:45;7.30;99.90
53264;DHT22;39153;52.680;6.172;2023-12-20T03:11:11;7.80;99.90
53264;DHT22;39153;52.680;6.172;2023-12-20T03:13:36;7.50;99.90
53264;DHT22;39153;52.680;6.172;2023-12-20T03:16:11;7.90;99.90
53264;DHT22;39153;52.680;6.172;2023-12-20T03:18:37;7.90;99.90
53264;DHT22;39153;52.680;6.172;2023-12-20T03:21:04;7.60;99.90
53264;DHT22;39153;52.680;6.172;2023-12-20T03:23:30;7.80;99.90
53264;DHT22;39153;52.680;6.172;2023-12-20T03:26:00;7.90;99.90
53264;DHT22;39153;52.680;6.172;2023-12-20T03:28:27;7.40;99.90
53264;DHT22;39153;52.680;6.172;2023-12-20T03:30:53;7.90;99.90
53264;DHT22;39153;52.680;6.172;2023-12-20T03:33:18;7.90;99.90
53264;DHT22;39153;52.680;6.172;2023-12-20T03:35:44;7.60;99.90
53264;DHT22;39153;52.680;6.172;2023-12-20T03:38:10;7.80;99.90
53264;DHT22;39153;52.680;6.172;2023-12-20T03:40:35;8.00;99.90
53264;DHT22;39153;52.680;6.172;2023-12-20T03:43:01;7.40;99.90
53264;DHT22;39153;52.680;6.172;2023-12-20T03:45:27;7.80;99.90
53264;DHT22;39153;52.680;6.172;2023-12-20T03:47:52;7.90;99.90
53264;DHT22;39153;52.680;6.172;2023-12-20T03:50:25;7.90;99.90
53264;DHT22;39153;52.680;6.172;2023-12-20T03:52:51;8.10;99.90
53264;DHT22;39153;52.680;6.172;2023-12-20T03:55:17;8.10;99.90
53264;DHT22;39153;52.680;6.172;2023-12-20T03:57:43;8.00;99.90
53264;DHT22;39153;52.680;6.172;2023-12-20T04:00:09;7.90;99.90
53264;DHT22;39153;52.680;6.172;2023-12-20T04:02:39;7.60;99.90
53264;DHT22;39153;52.680;6.172;2023-12-20T04:05:06;7.60;99.90
53264;DHT22;39153;52.680;6.172;2023-12-20T04:07:32;7.80;99.90
53264;DHT22;39153;52.680;6.172;2023-12-20T04:09:57;7.90;99.90
53264;DHT22;39153;52.680;6.172;2023-12-20T04:12:23;7.70;99.90
53264;DHT22;39153;52.680;6.172;2023-12-20T04:14:49;7.80;99.90
53264;DHT22;39153;52.680;6.172;2023-12-20T04:17:17;7.80;99.90
53264;DHT22;39153;52.680;6.172;2023-12-20T04:19:43;7.40;99.90
53264;DHT22;39153;52.680;6.172;2023-12-20T04:22:09;7.30;99.90
53264;DHT22;39153;52.680;6.172;2023-12-20T04:24:34;7.50;99.90
53264;DHT22;39153;52.680;6.172;2023-12-20T04:27:01;7.40;99.90
53264;DHT22;39153;52.680;6.172;2023-12-20T04:29:26;7.30;99.90
53264;DHT22;39153;52.680;6.172;2023-12-20T04:31:52;7.80;99.90
53264;DHT22;39153;52.680;6.172;2023-12-20T04:34:18;7.70;99.90
53264;DHT22;39153;52.680;6.172;2023-12-20T04:36:44;7.60;99.90
53264;DHT22;39153;52.680;6.172;2023-12-20T04:39:11;7.60;99.90
53264;DHT22;39153;52.680;6.172;2023-12-20T04:41:36;7.60;99.90
53264;DHT22;39153;52.680;6.172;2023-12-20T04:44:02;7.80;99.90
53264;DHT22;39153;52.680;6.172;2023-12-20T04:46:28;7.80;99.90
53264;DHT22;39153;52.680;6.172;2023-12-20T04:48:53;8.00;99.90
53264;DHT22;39153;52.680;6.172;2023-12-20T04:51:19;8.00;99.90
53264;DHT22;39153;52.680;6.172;2023-12-20T04:53:45;7.70;99.90
53264;DHT22;39153;52.680;6.172;2023-12-20T04:56:11;8.00;99.90
53264;DHT22;39153;52.680;6.172;2023-12-20T04:58:37;8.30;99.90
53264;DHT22;39153;52.680;6.172;2023-12-20T05:01:04;7.70;99.90
53264;DHT22;39153;52.680;6.172;2023-12-20T05:03:30;8.10;99.90
53264;DHT22;39153;52.680;6.172;2023-12-20T05:05:56;8.00;99.90
53264;DHT22;39153;52.680;6.172;2023-12-20T05:08:22;7.70;99.90
53264;DHT22;39153;52.680;6.172;2023-12-20T05:10:48;7.80;99.90
53264;DHT22;39153;52.680;6.172;2023-12-20T05:13:13;8.10;99.90
53264;DHT22;39153;52.680;6.172;2023-12-20T05:15:39;7.80;99.90
53264;DHT22;39153;52.680;6.172;2023-12-20T05:18:05;8.20;99.90
53264;DHT22;39153;52.680;6.172;2023-12-20T05:20:30;7.80;99.90
53264;DHT22;39153;52.680;6.172;2023-12-20T05:22:56;8.20;99.90
53264;DHT22;39153;52.680;6.172;2023-12-20T05:25:22;8.20;99.90
53264;DHT22;39153;52.680;6.172;2023-12-20T05:27:48;7.90;99.90
53264;DHT22;39153;52.680;6.172;2023-12-20T05:30:13;8.30;99.90
53264;DHT22;39153;52.680;6.172;2023-12-20T05:32:39;7.90;99.90
53264;DHT22;39153;52.680;6.172;2023-12-20T05:35:05;8.30;99.90
53264;DHT22;39153;52.680;6.172;2023-12-20T05:37:31;8.00;99.90
53264;DHT22;39153;52.680;6.172;2023-12-20T05:39:57;8.30;99.90
53264;DHT22;39153;52.680;6.172;2023-12-20T05:42:22;8.20;99.90
53264;DHT22;39153;52.680;6.172;2023-12-20T05:44:48;8.30;99.90
53264;DHT22;39153;52.680;6.172;2023-12-20T05:47:14;8.00;99.90
53264;DHT22;39153;52.680;6.172;2023-12-20T05:49:40;8.30;99.90
53264;DHT22;39153;52.680;6.172;2023-12-20T05:52:05;8.00;99.90
53264;DHT22;39153;52.680;6.172;2023-12-20T05:54:31;7.90;99.90
53264;DHT22;39153;52.680;6.172;2023-12-20T05:56:57;8.20;99.90
53264;DHT22;39153;52.680;6.172;2023-12-20T05:59:22;7.90;99.90
53264;DHT22;39153;52.680;6.172;2023-12-20T06:01:48;7.90;99.90
53264;DHT22;39153;52.680;6.172;2023-12-20T06:04:14;7.90;99.90
53264;DHT22;39153;52.680;6.172;2023-12-20T06:06:43;8.00;99.90
53264;DHT22;39153;52.680;6.172;2023-12-20T06:09:09;8.00;99.90
53264;DHT22;39153;52.680;6.172;2023-12-20T06:11:35;8.10;99.90
53264;DHT22;39153;52.680;6.172;2023-12-20T06:14:00;8.30;99.90
53264;DHT22;39153;52.680;6.172;2023-12-20T06:16:26;8.30;99.90
53264;DHT22;39153;52.680;6.172;2023-12-20T06:18:52;8.10;99.90
53264;DHT22;39153;52.680;6.172;2023-12-20T06:21:18;8.30;99.90
53264;DHT22;39153;52.680;6.172;2023-12-20T06:23:43;8.10;99.90
53264;DHT22;39153;52.680;6.172;2023-12-20T06:26:09;8.10;99.90
53264;DHT22;39153;52.680;6.172;2023-12-20T06:28:35;8.20;99.90
53264;DHT22;39153;52.680;6.172;2023-12-20T06:31:00;8.50;99.90
53264;DHT22;39153;52.680;6.172;2023-12-20T06:33:26;8.60;99.90
53264;DHT22;39153;52.680;6.172;2023-12-20T06:35:52;8.20;99.90
53264;DHT22;39153;52.680;6.172;2023-12-20T06:38:18;8.50;99.90
53264;DHT22;39153;52.680;6.172;2023-12-20T06:40:44;8.50;99.90
53264;DHT22;39153;52.680;6.172;2023-12-20T06:43:11;8.40;99.90
53264;DHT22;39153;52.680;6.172;2023-12-20T06:45:37;8.20;99.90
53264;DHT22;39153;52.680;6.172;2023-12-20T06:48:03;8.30;99.90
53264;DHT22;39153;52.680;6.172;2023-12-20T06:50:29;8.40;99.90
53264;DHT22;39153;52.680;6.172;2023-12-20T06:52:54;8.40;99.90
53264;DHT22;39153;52.680;6.172;2023-12-20T06:55:20;8.40;99.90
53264;DHT22;39153;52.680;6.172;2023-12-20T06:57:46;8.20;99.90
53264;DHT22;39153;52.680;6.172;2023-12-20T07:00:12;8.20;99.90
53264;DHT22;39153;52.680;6.172;2023-12-20T07:02:38;8.30;99.90
53264;DHT22;39153;52.680;6.172;2023-12-20T07:05:04;8.40;99.90
53264;DHT22;39153;52.680;6.172;2023-12-20T07:07:30;8.20;99.90
53264;DHT22;39153;52.680;6.172;2023-12-20T07:09:55;8.20;99.90
53264;DHT22;39153;52.680;6.172;2023-12-20T07:12:21;8.30;99.90
53264;DHT22;39153;52.680;6.172;2023-12-20T07:14:47;8.50;99.90
53264;DHT22;39153;52.680;6.172;2023-12-20T07:17:13;8.40;99.90
53264;DHT22;39153;52.680;6.172;2023-12-20T07:19:41;8.20;99.90
53264;DHT22;39153;52.680;6.172;2023-12-20T07:22:07;8.50;99.90
53264;DHT22;39153;52.680;6.172;2023-12-20T07:24:33;8.20;99.90
53264;DHT22;39153;52.680;6.172;2023-12-20T07:27:01;8.50;99.90
53264;DHT22;39153;52.680;6.172;2023-12-20T07:29:27;8.20;99.90
53264;DHT22;39153;52.680;6.172;2023-12-20T07:31:53;8.30;99.90
53264;DHT22;39153;52.680;6.172;2023-12-20T07:34:20;8.30;99.90
53264;DHT22;39153;52.680;6.172;2023-12-20T07:36:46;8.80;99.90
53264;DHT22;39153;52.680;6.172;2023-12-20T07:39:12;8.40;99.90
53264;DHT22;39153;52.680;6.172;2023-12-20T07:41:38;8.60;99.90
53264;DHT22;39153;52.680;6.172;2023-12-20T07:44:04;8.30;99.90
53264;DHT22;39153;52.680;6.172;2023-12-20T07:46:30;8.20;99.90
53264;DHT22;39153;52.680;6.172;2023-12-20T07:48:56;8.30;99.90
53264;DHT22;39153;52.680;6.172;2023-12-20T07:51:22;8.40;99.90
53264;DHT22;39153;52.680;6.172;2023-12-20T07:53:48;8.30;99.90
53264;DHT22;39153;52.680;6.172;2023-12-20T07:56:18;8.60;99.90
53264;DHT22;39153;52.680;6.172;2023-12-20T07:58:45;8.40;99.90
53264;DHT22;39153;52.680;6.172;2023-12-20T08:01:11;8.50;99.90
53264;DHT22;39153;52.680;6.172;2023-12-20T08:03:37;8.50;99.90
53264;DHT22;39153;52.680;6.172;2023-12-20T08:06:03;8.50;99.90
53264;DHT22;39153;52.680;6.172;2023-12-20T08:08:29;8.50;99.90
53264;DHT22;39153;52.680;6.172;2023-12-20T08:10:55;8.80;99.90
53264;DHT22;39153;52.680;6.172;2023-12-20T08:13:23;8.80;99.90
53264;DHT22;39153;52.680;6.172;2023-12-20T08:15:51;8.80;99.90
53264;DHT22;39153;52.680;6.172;2023-12-20T08:18:17;8.60;99.90
53264;DHT22;39153;52.680;6.172;2023-12-20T08:20:43;8.70;99.90
53264;DHT22;39153;52.680;6.172;2023-12-20T08:23:09;8.70;99.90
53264;DHT22;39153;52.680;6.172;2023-12-20T08:25:34;8.90;99.90
53264;DHT22;39153;52.680;6.172;2023-12-20T08:28:02;8.90;99.90
53264;DHT22;39153;52.680;6.172;2023-12-20T08:30:27;8.70;99.90
53264;DHT22;39153;52.680;6.172;2023-12-20T08:32:53;8.90;99.90
53264;DHT22;39153;52.680;6.172;2023-12-20T08:35:19;8.90;99.90
53264;DHT22;39153;52.680;6.172;2023-12-20T08:37:45;9.00;99.90
53264;DHT22;39153;52.680;6.172;2023-12-20T08:40:11;9.00;99.90
53264;DHT22;39153;52.680;6.172;2023-12-20T08:42:36;9.00;99.90
53264;DHT22;39153;52.680;6.172;2023-12-20T08:45:02;8.80;99.90
53264;DHT22;39153;52.680;6.172;2023-12-20T08:47:29;8.80;99.90
53264;DHT22;39153;52.680;6.172;2023-12-20T08:49:55;8.80;99.90
53264;DHT22;39153;52.680;6.172;2023-12-20T08:52:23;8.80;99.90
53264;DHT22;39153;52.680;6.172;2023-12-20T08:54:50;8.90;99.90
53264;DHT22;39153;52.680;6.172;2023-12-20T08:57:20;8.80;99.90
53264;DHT22;39153;52.680;6.172;2023-12-20T08:59:47;9.00;99.90
53264;DHT22;39153;52.680;6.172;2023-12-20T09:02:14;9.00;99.90
53264;DHT22;39153;52.680;6.172;2023-12-20T09:04:39;8.90;99.90
53264;DHT22;39153;52.680;6.172;2023-12-20T09:07:05;8.90;99.90
53264;DHT22;39153;52.680;6.172;2023-12-20T09:09:31;9.10;99.90
53264;DHT22;39153;52.680;6.172;2023-12-20T09:11:57;9.00;99.90
53264;DHT22;39153;52.680;6.172;2023-12-20T09:14:23;9.10;99.90
53264;DHT22;39153;52.680;6.172;2023-12-20T09:16:49;9.30;99.90
53264;DHT22;39153;52.680;6.172;2023-12-20T09:19:17;9.10;99.90
53264;DHT22;39153;52.680;6.172;2023-12-20T09:21:43;8.90;99.90
53264;DHT22;39153;52.680;6.172;2023-12-20T09:24:08;9.20;99.90
53264;DHT22;39153;52.680;6.172;2023-12-20T09:26:34;9.10;99.90
53264;DHT22;39153;52.680;6.172;2023-12-20T09:29:00;9.00;99.90
53264;DHT22;39153;52.680;6.172;2023-12-20T09:31:26;9.20;99.90
53264;DHT22;39153;52.680;6.172;2023-12-20T09:33:52;9.10;99.90
53264;DHT22;39153;52.680;6.172;2023-12-20T09:36:18;9.30;99.90
53264;DHT22;39153;52.680;6.172;2023-12-20T09:38:43;9.10;99.90
53264;DHT22;39153;52.680;6.172;2023-12-20T09:41:09;9.30;99.90
53264;DHT22;39153;52.680;6.172;2023-12-20T09:43:37;9.20;99.90
53264;DHT22;39153;52.680;6.172;2023-12-20T09:46:05;9.50;99.90
53264;DHT22;39153;52.680;6.172;2023-12-20T09:48:33;9.50;99.90
53264;DHT22;39153;52.680;6.172;2023-12-20T09:50:59;9.40;99.90
53264;DHT22;39153;52.680;6.172;2023-12-20T09:53:25;9.50;99.90
53264;DHT22;39153;52.680;6.172;2023-12-20T09:55:58;9.50;99.90
53264;DHT22;39153;52.680;6.172;2023-12-20T09:58:25;9.60;99.90
53264;DHT22;39153;52.680;6.172;2023-12-20T10:00:51;9.60;99.90
53264;DHT22;39153;52.680;6.172;2023-12-20T10:03:22;9.50;99.90
53264;DHT22;39153;52.680;6.172;2023-12-20T10:05:52;9.60;99.90
53264;DHT22;39153;52.680;6.172;2023-12-20T10:08:21;9.60;99.90
53264;DHT22;39153;52.680;6.172;2023-12-20T10:10:47;10.70;99.90
53264;DHT22;39153;52.680;6.172;2023-12-20T10:13:13;9.30;99.90
53264;DHT22;39153;52.680;6.172;2023-12-20T10:15:39;8.70;99.90
53264;DHT22;39153;52.680;6.172;2023-12-20T10:18:06;8.30;99.90
53264;DHT22;39153;52.680;6.172;2023-12-20T10:20:32;7.70;99.90
53264;DHT22;39153;52.680;6.172;2023-12-20T10:22:59;7.90;99.90
53264;DHT22;39153;52.680;6.172;2023-12-20T10:25:25;7.40;99.90
53264;DHT22;39153;52.680;6.172;2023-12-20T10:28:09;7.60;99.90
53264;DHT22;39153;52.680;6.172;2023-12-20T10:30:35;7.40;99.90
53264;DHT22;39153;52.680;6.172;2023-12-20T10:33:01;7.70;99.90
53264;DHT22;39153;52.680;6.172;2023-12-20T10:35:27;7.70;99.90
53264;DHT22;39153;52.680;6.172;2023-12-20T10:37:56;7.90;99.90
53264;DHT22;39153;52.680;6.172;2023-12-20T10:40:22;7.80;99.90
53264;DHT22;39153;52.680;6.172;2023-12-20T10:42:49;7.90;99.90
53264;DHT22;39153;52.680;6.172;2023-12-20T10:45:16;7.60;99.90
53264;DHT22;39153;52.680;6.172;2023-12-20T10:47:46;7.30;99.90
53264;DHT22;39153;52.680;6.172;2023-12-20T10:50:12;7.40;99.90
53264;DHT22;39153;52.680;6.172;2023-12-20T10:52:38;7.90;99.90
53264;DHT22;39153;52.680;6.172;2023-12-20T10:55:04;7.90;99.90
53264;DHT22;39153;52.680;6.172;2023-12-20T10:57:30;7.70;99.90
53264;DHT22;39153;52.680;6.172;2023-12-20T11:00:01;7.40;99.90
53264;DHT22;39153;52.680;6.172;2023-12-20T11:02:32;7.80;99.90
53264;DHT22;39153;52.680;6.172;2023-12-20T11:08:15;7.50;99.90
53264;DHT22;39153;52.680;6.172;2023-12-20T11:10:55;7.90;99.90
53264;DHT22;39153;52.680;6.172;2023-12-20T11:13:34;7.50;99.90
53264;DHT22;39153;52.680;6.172;2023-12-20T11:16:02;7.70;99.90
53264;DHT22;39153;52.680;6.172;2023-12-20T11:18:31;6.60;99.90
53264;DHT22;39153;52.680;6.172;2023-12-20T11:21:04;9.10;99.90
53264;DHT22;39153;52.680;6.172;2023-12-20T11:23:31;7.40;99.90
53264;DHT22;39153;52.680;6.172;2023-12-20T11:25:59;7.40;99.90
53264;DHT22;39153;52.680;6.172;2023-12-20T11:28:26;8.00;99.90
53264;DHT22;39153;52.680;6.172;2023-12-20T11:33:24;7.70;99.90
53264;DHT22;39153;52.680;6.172;2023-12-20T11:35:51;7.70;99.90
53264;DHT22;39153;52.680;6.172;2023-12-20T11:38:17;8.10;99.90
53264;DHT22;39153;52.680;6.172;2023-12-20T11:40:43;7.70;99.90
53264;DHT22;39153;52.680;6.172;2023-12-20T11:43:09;8.00;99.90
53264;DHT22;39153;52.680;6.172;2023-12-20T11:45:35;7.80;99.90
53264;DHT22;39153;52.680;6.172;2023-12-20T11:48:04;8.10;99.90
53264;DHT22;39153;52.680;6.172;2023-12-20T11:50:31;8.10;99.90
53264;DHT22;39153;52.680;6.172;2023-12-20T11:52:57;7.80;99.90
53264;DHT22;39153;52.680;6.172;2023-12-20T11:55:23;8.20;99.90
53264;DHT22;39153;52.680;6.172;2023-12-20T11:57:50;7.70;99.90
53264;DHT22;39153;52.680;6.172;2023-12-20T12:00:16;8.30;99.90
53264;DHT22;39153;52.680;6.172;2023-12-20T12:02:42;8.10;99.90
53264;DHT22;39153;52.680;6.172;2023-12-20T12:05:08;8.00;99.90
53264;DHT22;39153;52.680;6.172;2023-12-20T12:07:35;7.70;99.90
53264;DHT22;39153;52.680;6.172;2023-12-20T12:10:01;7.60;99.90
53264;DHT22;39153;52.680;6.172;2023-12-20T12:12:27;7.90;99.90
53264;DHT22;39153;52.680;6.172;2023-12-20T12:14:54;7.70;99.90
53264;DHT22;39153;52.680;6.172;2023-12-20T12:17:20;7.80;99.90
53264;DHT22;39153;52.680;6.172;2023-12-20T12:19:46;7.70;99.90
53264;DHT22;39153;52.680;6.172;2023-12-20T12:22:13;8.10;99.90
53264;DHT22;39153;52.680;6.172;2023-12-20T12:24:44;7.70;99.90
53264;DHT22;39153;52.680;6.172;2023-12-20T12:27:11;8.20;99.90
53264;DHT22;39153;52.680;6.172;2023-12-20T12:29:37;8.10;99.90
53264;DHT22;39153;52.680;6.172;2023-12-20T12:32:07;8.00;99.90
53264;DHT22;39153;52.680;6.172;2023-12-20T12:34:34;8.20;99.90
53264;DHT22;39153;52.680;6.172;2023-12-20T12:37:00;7.90;99.90
53264;DHT22;39153;52.680;6.172;2023-12-20T12:39:26;7.90;99.90
53264;DHT22;39153;52.680;6.172;2023-12-20T12:41:52;8.20;99.90
53264;DHT22;39153;52.680;6.172;2023-12-20T12:44:19;7.90;99.90
53264;DHT22;39153;52.680;6.172;2023-12-20T12:46:46;7.80;99.90
53264;DHT22;39153;52.680;6.172;2023-12-20T12:49:12;7.80;99.90
53264;DHT22;39153;52.680;6.172;2023-12-20T12:51:38;7.80;99.90
53264;DHT22;39153;52.680;6.172;2023-12-20T12:54:04;8.00;99.90
53264;DHT22;39153;52.680;6.172;2023-12-20T12:56:29;8.20;99.90
53264;DHT22;39153;52.680;6.172;2023-12-20T12:58:56;8.30;99.90
53264;DHT22;39153;52.680;6.172;2023-12-20T13:01:21;8.20;99.90
53264;DHT22;39153;52.680;6.172;2023-12-20T13:03:47;8.20;99.90
53264;DHT22;39153;52.680;6.172;2023-12-20T13:06:13;8.30;99.90
53264;DHT22;39153;52.680;6.172;2023-12-20T13:08:39;7.90;99.90
53264;DHT22;39153;52.680;6.172;2023-12-20T13:11:04;8.00;99.90
53264;DHT22;39153;52.680;6.172;2023-12-20T13:13:31;8.30;99.90
53264;DHT22;39153;52.680;6.172;2023-12-20T13:15:57;7.80;99.90
53264;DHT22;39153;52.680;6.172;2023-12-20T13:18:23;7.80;99.90
53264;DHT22;39153;52.680;6.172;2023-12-20T13:20:49;8.20;99.90
53264;DHT22;39153;52.680;6.172;2023-12-20T13:23:15;8.20;99.90
53264;DHT22;39153;52.680;6.172;2023-12-20T13:25:41;8.40;99.90
53264;DHT22;39153;52.680;6.172;2023-12-20T13:28:07;8.00;99.90
53264;DHT22;39153;52.680;6.172;2023-12-20T13:30:34;8.60;99.90
53264;DHT22;39153;52.680;6.172;2023-12-20T13:32:59;7.90;99.90
53264;DHT22;39153;52.680;6.172;2023-12-20T13:35:25;8.20;99.90
53264;DHT22;39153;52.680;6.172;2023-12-20T13:37:51;7.80;99.90
53264;DHT22;39153;52.680;6.172;2023-12-20T13:40:17;7.80;99.90
53264;DHT22;39153;52.680;6.172;2023-12-20T13:42:43;8.40;99.90
53264;DHT22;39153;52.680;6.172;2023-12-20T13:45:09;7.90;99.90
53264;DHT22;39153;52.680;6.172;2023-12-20T13:47:35;8.40;99.90
53264;DHT22;39153;52.680;6.172;2023-12-20T13:50:01;8.50;99.90
53264;DHT22;39153;52.680;6.172;2023-12-20T13:52:27;8.40;99.90
53264;DHT22;39153;52.680;6.172;2023-12-20T13:54:53;8.50;99.90
53264;DHT22;39153;52.680;6.172;2023-12-20T13:57:19;8.50;99.90
53264;DHT22;39153;52.680;6.172;2023-12-20T13:59:44;8.60;99.90
53264;DHT22;39153;52.680;6.172;2023-12-20T14:02:10;8.40;99.90
53264;DHT22;39153;52.680;6.172;2023-12-20T14:04:36;8.80;99.90
53264;DHT22;39153;52.680;6.172;2023-12-20T14:07:01;8.70;99.90
53264;DHT22;39153;52.680;6.172;2023-12-20T14:09:28;8.80;99.90
53264;DHT22;39153;52.680;6.172;2023-12-20T14:11:53;8.50;99.90
53264;DHT22;39153;52.680;6.172;2023-12-20T14:14:20;8.80;99.90
53264;DHT22;39153;52.680;6.172;2023-12-20T14:16:46;9.10;99.90
53264;DHT22;39153;52.680;6.172;2023-12-20T14:19:12;9.00;99.90
53264;DHT22;39153;52.680;6.172;2023-12-20T14:21:38;8.80;99.90
53264;DHT22;39153;52.680;6.172;2023-12-20T14:24:03;8.90;99.90
53264;DHT22;39153;52.680;6.172;2023-12-20T14:26:30;9.20;99.90
53264;DHT22;39153;52.680;6.172;2023-12-20T14:28:56;9.20;99.90
53264;DHT22;39153;52.680;6.172;2023-12-20T14:31:22;9.20;99.90
53264;DHT22;39153;52.680;6.172;2023-12-20T14:33:50;9.10;99.90
53264;DHT22;39153;52.680;6.172;2023-12-20T14:36:19;9.10;99.90
53264;DHT22;39153;52.680;6.172;2023-12-20T14:38:46;8.90;99.90
53264;DHT22;39153;52.680;6.172;2023-12-20T14:41:15;8.90;99.90
53264;DHT22;39153;52.680;6.172;2023-12-20T14:43:42;8.90;99.90
53264;DHT22;39153;52.680;6.172;2023-12-20T14:46:08;9.20;99.90
53264;DHT22;39153;52.680;6.172;2023-12-20T14:48:34;9.00;99.90
53264;DHT22;39153;52.680;6.172;2023-12-20T14:50:59;9.10;99.90
53264;DHT22;39153;52.680;6.172;2023-12-20T14:53:26;9.10;99.90
53264;DHT22;39153;52.680;6.172;2023-12-20T14:55:52;9.00;99.90
53264;DHT22;39153;52.680;6.172;2023-12-20T14:58:18;8.80;99.90
53264;DHT22;39153;52.680;6.172;2023-12-20T15:00:43;9.10;99.90
53264;DHT22;39153;52.680;6.172;2023-12-20T15:03:10;8.80;99.90
53264;DHT22;39153;52.680;6.172;2023-12-20T15:05:36;8.80;99.90
53264;DHT22;39153;52.680;6.172;2023-12-20T15:08:02;9.20;99.90
53264;DHT22;39153;52.680;6.172;2023-12-20T15:10:28;8.80;99.90
53264;DHT22;39153;52.680;6.172;2023-12-20T15:12:54;9.10;99.90
53264;DHT22;39153;52.680;6.172;2023-12-20T15:15:21;8.90;99.90
53264;DHT22;39153;52.680;6.172;2023-12-20T15:17:47;9.00;99.90
53264;DHT22;39153;52.680;6.172;2023-12-20T15:20:13;8.70;99.90
53264;DHT22;39153;52.680;6.172;2023-12-20T15:22:39;8.90;99.90
53264;DHT22;39153;52.680;6.172;2023-12-20T15:25:07;9.00;99.90
53264;DHT22;39153;52.680;6.172;2023-12-20T15:27:34;8.80;99.90
53264;DHT22;39153;52.680;6.172;2023-12-20T15:30:05;9.00;99.90
53264;DHT22;39153;52.680;6.172;2023-12-20T15:32:32;8.60;99.90
53264;DHT22;39153;52.680;6.172;2023-12-20T15:34:58;8.60;99.90
53264;DHT22;39153;52.680;6.172;2023-12-20T15:37:24;9.00;99.90
53264;DHT22;39153;52.680;6.172;2023-12-20T15:39:52;8.90;99.90
53264;DHT22;39153;52.680;6.172;2023-12-20T15:42:17;8.60;99.90
53264;DHT22;39153;52.680;6.172;2023-12-20T15:44:43;8.60;99.90